Decoded Metar for LTCR (MARDIN in TURKEY) (IATA:) | Meteo·Mobile Aviation Weather
aviador You're here:

LTCR Decoded Metar

MARDIN in TURKEY
Report Time2018-12-16 10:50:00
UTC Time2018-12-16 11:23:18
Flight Rules vfr VFR
WindVRB at 01 kt
Visibility9999 m
Phenomena:N/A
Clouds:N/A
Expected CloudBase > 3,600 ft AGL from Temp-Dew spread
CeilingNone
Temp13°C (ISA +1)
Dew Point04°C (55% RH)
AAT11.4°C
QNH1024 hPa
Density Alt1,644 ft
Elevation1,729 ft
Report Wrong Elevation
Raw Report
METAR LTCR 161050Z VRB01KT CAVOK 13/04 Q1024=

Extra information for LTCR:More info

Metar Taf Metar & Taf Last 4 Metars F.Rules Stats Wind Profile Meteogram Temp Stats Airport Information Weather charts Add Link Nearby VenuesMetar ALERT Operation Metar Decoded Social comments